createdAt,value
2019-05-01T00:00:15.988Z,49.53
2019-05-01T00:03:15.838Z,45.95
2019-05-01T00:05:45.875Z,50.35
2019-05-01T00:08:13.556Z,51.63
2019-05-01T00:10:40.941Z,47.20
2019-05-01T00:13:08.522Z,48.85
2019-05-01T00:15:38.889Z,49.70
2019-05-01T00:18:06.278Z,49.55
2019-05-01T00:20:33.730Z,48.35
2019-05-01T00:23:01.054Z,52.65
2019-05-01T00:25:28.442Z,45.23
2019-05-01T00:27:55.728Z,53.50
2019-05-01T00:30:30.028Z,50.38
2019-05-01T00:32:53.205Z,48.28
2019-05-01T00:35:20.578Z,45.95
2019-05-01T00:37:47.969Z,47.27
2019-05-01T00:40:15.353Z,48.58
2019-05-01T00:42:42.737Z,51.23
2019-05-01T00:45:10.234Z,51.33
2019-05-01T00:47:37.644Z,52.17
2019-05-01T00:50:05.181Z,50.88
2019-05-01T00:52:32.582Z,47.83
2019-05-01T00:55:19.493Z,52.17
2019-05-01T00:57:54.309Z,49.42
2019-05-01T01:00:42.611Z,50.83
2019-05-01T01:03:00.039Z,46.50
2019-05-01T01:05:27.467Z,47.80
2019-05-01T01:07:54.863Z,43.75
2019-05-01T01:10:22.255Z,43.23
2019-05-01T01:12:49.664Z,41.25
2019-05-01T01:15:17.071Z,43.25
2019-05-01T01:17:44.374Z,41.63
2019-05-01T01:20:11.878Z,37.25
2019-05-01T01:22:39.282Z,36.63
2019-05-01T01:25:06.972Z,39.85
2019-05-01T01:27:34.395Z,37.00
2019-05-01T01:30:01.827Z,40.35
2019-05-01T01:32:29.218Z,38.78
2019-05-01T01:34:56.622Z,39.18
2019-05-01T01:37:24.030Z,37.73
2019-05-01T01:39:51.466Z,36.20
2019-05-01T01:42:19.477Z,36.55
2019-05-01T01:45:01.560Z,39.25
2019-05-01T01:47:29.074Z,39.27
2019-05-01T01:49:56.870Z,37.80
2019-05-01T01:52:24.803Z,37.20
2019-05-01T01:54:52.506Z,35.15
2019-05-01T01:57:19.894Z,35.68
2019-05-01T01:59:48.029Z,35.43
2019-05-01T02:02:32.254Z,34.70
2019-05-01T02:05:11.122Z,34.63
2019-05-01T02:07:38.541Z,36.48
2019-05-01T02:10:06.487Z,36.20
2019-05-01T02:12:34.950Z,32.90
2019-05-01T02:15:02.354Z,36.17
2019-05-01T02:17:29.754Z,35.68
2019-05-01T02:19:57.138Z,36.85
2019-05-01T02:22:24.554Z,36.73
2019-05-01T02:24:51.982Z,46.15
2019-05-01T02:27:25.126Z,35.73
2019-05-01T02:29:56.370Z,37.70
2019-05-01T02:32:27.374Z,37.70
2019-05-01T02:34:56.763Z,35.98
2019-05-01T02:37:25.833Z,37.73
2019-05-01T02:39:55.307Z,36.45
2019-05-01T02:42:26.667Z,31.50
2019-05-01T02:44:56.886Z,31.15
2019-05-01T02:47:26.579Z,33.33
2019-05-01T02:50:02.975Z,32.17
2019-05-01T02:52:33.939Z,38.08
2019-05-01T02:55:05.463Z,29.18
2019-05-01T02:57:34.331Z,35.83
2019-05-01T03:00:02.010Z,33.38
2019-05-01T03:02:30.114Z,31.95
2019-05-01T03:04:58.118Z,33.60
2019-05-01T03:07:30.077Z,30.37
2019-05-01T03:09:57.547Z,36.42
2019-05-01T03:12:28.519Z,33.55
2019-05-01T03:14:59.191Z,37.45
2019-05-01T03:17:53.226Z,31.87
2019-05-01T03:20:40.944Z,31.95
2019-05-01T03:23:27.216Z,32.80
2019-05-01T03:25:55.584Z,34.55
2019-05-01T03:28:23.369Z,34.60
2019-05-01T03:30:50.749Z,35.33
2019-05-01T03:33:18.159Z,36.95
2019-05-01T03:35:45.531Z,34.75
2019-05-01T03:38:13.108Z,33.80
2019-05-01T03:40:40.867Z,32.38
2019-05-01T03:43:08.547Z,32.38
2019-05-01T03:45:36.541Z,30.88
2019-05-01T03:48:04.306Z,34.92
2019-05-01T03:50:31.782Z,32.73
2019-05-01T03:52:59.163Z,32.63
2019-05-01T03:55:26.871Z,32.20
2019-05-01T03:57:54.535Z,36.25
2019-05-01T04:00:45.051Z,33.58
2019-05-01T04:03:37.807Z,34.53
2019-05-01T04:06:05.550Z,32.95
2019-05-01T04:08:32.966Z,36.50
2019-05-01T04:11:00.546Z,32.83
2019-05-01T04:13:27.932Z,35.52
2019-05-01T04:15:55.677Z,32.75
2019-05-01T04:18:23.651Z,35.33
2019-05-01T04:20:51.240Z,31.02
2019-05-01T04:23:18.960Z,29.95
2019-05-01T04:25:46.352Z,34.63
2019-05-01T04:28:29.734Z,32.78
2019-05-01T04:31:07.269Z,33.65
2019-05-01T04:33:35.785Z,30.08
2019-05-01T04:36:08.496Z,33.60
2019-05-01T04:38:35.934Z,33.02
2019-05-01T04:41:03.453Z,32.73
2019-05-01T04:43:30.838Z,32.58
2019-05-01T04:45:58.127Z,34.45
2019-05-01T04:48:25.627Z,38.55
2019-05-01T04:50:53.315Z,32.03
2019-05-01T04:53:20.811Z,37.58
2019-05-01T04:55:48.734Z,35.78
2019-05-01T04:58:16.214Z,36.08
2019-05-01T05:00:43.652Z,32.08
2019-05-01T05:03:15.300Z,36.05
2019-05-01T05:05:43.086Z,36.03
2019-05-01T05:08:10.472Z,33.23
2019-05-01T05:10:38.180Z,34.85
2019-05-01T05:13:12.507Z,36.75
2019-05-01T05:15:47.343Z,37.48
2019-05-01T05:18:15.254Z,38.85
2019-05-01T05:20:42.654Z,33.65
2019-05-01T05:23:10.558Z,38.67
2019-05-01T05:25:38.247Z,35.50
2019-05-01T05:28:05.714Z,39.95
2019-05-01T05:30:33.875Z,35.92
2019-05-01T05:33:17.162Z,37.65
2019-05-01T05:35:37.146Z,36.75
2019-05-01T05:38:39.858Z,34.67
2019-05-01T05:41:08.462Z,35.73
2019-05-01T05:43:36.222Z,35.98
2019-05-01T05:46:03.967Z,40.60
2019-05-01T05:48:31.754Z,40.25
2019-05-01T05:51:18.887Z,40.15
2019-05-01T05:53:48.606Z,40.67
2019-05-01T05:56:21.526Z,42.23
2019-05-01T05:58:54.067Z,47.83
2019-05-01T06:01:34.459Z,43.75
2019-05-01T06:04:23.203Z,44.67
2019-05-01T06:07:06.176Z,40.35
2019-05-01T06:10:03.827Z,41.15
2019-05-01T06:12:46.812Z,40.30
2019-05-01T06:15:28.248Z,38.15
2019-05-01T06:18:10.075Z,43.05
2019-05-01T06:21:02.252Z,45.92
2019-05-01T06:23:52.638Z,41.05
2019-05-01T06:26:27.368Z,40.65
2019-05-01T06:28:56.010Z,41.92
2019-05-01T06:31:24.939Z,37.40
2019-05-01T06:33:54.982Z,36.88
2019-05-01T06:36:24.021Z,36.58
2019-05-01T06:38:52.493Z,39.73
2019-05-01T06:41:20.217Z,39.73
2019-05-01T06:44:10.284Z,36.68
2019-05-01T06:46:58.227Z,40.78
2019-05-01T06:49:39.766Z,31.97
2019-05-01T06:52:07.946Z,30.10
2019-05-01T06:54:35.790Z,32.85
2019-05-01T06:57:04.399Z,29.23
2019-05-01T06:59:33.379Z,35.10
2019-05-01T07:02:00.850Z,32.65
2019-05-01T07:04:32.458Z,36.50
2019-05-01T07:07:01.978Z,33.85
2019-05-01T07:09:29.522Z,35.88
2019-05-01T07:11:59.346Z,31.33
2019-05-01T07:14:26.891Z,31.70
2019-05-01T07:16:54.295Z,32.25
2019-05-01T07:19:42.012Z,30.43
2019-05-01T07:22:09.400Z,31.27
2019-05-01T07:24:36.782Z,32.48
2019-05-01T07:27:04.217Z,33.02
2019-05-01T07:29:33.457Z,32.45
2019-05-01T07:32:01.645Z,33.92
2019-05-01T07:34:30.161Z,31.52
2019-05-01T07:36:57.563Z,31.65
2019-05-01T07:39:24.971Z,29.98
2019-05-01T07:41:54.150Z,33.67
2019-05-01T07:44:43.826Z,33.83
2019-05-01T07:47:19.630Z,37.15
2019-05-01T07:49:54.686Z,33.02
2019-05-01T07:52:23.514Z,35.28
2019-05-01T07:54:50.990Z,35.38
2019-05-01T07:57:18.386Z,36.75
2019-05-01T07:59:46.077Z,40.78
2019-05-01T08:02:13.778Z,40.95
2019-05-01T08:04:41.195Z,36.90
2019-05-01T08:07:08.594Z,49.95
2019-05-01T08:09:36.005Z,42.23
2019-05-01T08:12:03.638Z,46.13
2019-05-01T08:14:31.029Z,46.20
2019-05-01T08:16:58.403Z,45.80
2019-05-01T08:19:41.272Z,44.20
2019-05-01T08:22:10.806Z,48.25
2019-05-01T08:24:38.194Z,47.30
2019-05-01T08:27:08.286Z,45.33
2019-05-01T08:29:53.922Z,44.03
2019-05-01T08:32:29.019Z,47.23
2019-05-01T08:35:00.531Z,48.83
2019-05-01T08:37:28.802Z,45.73
2019-05-01T08:39:56.194Z,45.60
2019-05-01T08:42:23.583Z,47.30
2019-05-01T08:45:14.747Z,46.13
2019-05-01T08:47:44.247Z,43.85
2019-05-01T08:50:20.017Z,44.85
2019-05-01T08:52:48.697Z,42.75
2019-05-01T08:55:16.135Z,47.53
2019-05-01T08:57:43.650Z,43.23
2019-05-01T09:00:11.899Z,45.33
2019-05-01T09:02:41.615Z,48.23
2019-05-01T09:05:26.951Z,45.20
2019-05-01T09:07:37.822Z,48.65
2019-05-01T09:10:08.739Z,49.05
2019-05-01T09:12:35.042Z,49.45
2019-05-01T09:15:07.176Z,45.75
2019-05-01T09:17:32.051Z,47.40
2019-05-01T09:19:59.733Z,47.55
2019-05-01T09:22:27.315Z,53.13
2019-05-01T09:25:00.059Z,47.03
2019-05-01T09:27:34.687Z,47.60
2019-05-01T09:30:11.056Z,46.42
2019-05-01T09:32:38.558Z,46.25
2019-05-01T09:35:15.497Z,48.70
2019-05-01T09:37:35.482Z,44.18
2019-05-01T09:40:04.216Z,47.10
2019-05-01T09:42:32.902Z,45.45
2019-05-01T09:45:00.404Z,43.87
2019-05-01T09:47:28.142Z,45.25
2019-05-01T09:49:56.009Z,44.08
2019-05-01T09:52:31.224Z,45.90
2019-05-01T09:55:08.334Z,51.65
2019-05-01T09:57:36.544Z,46.25
2019-05-01T10:00:07.134Z,45.43
2019-05-01T10:02:37.549Z,56.73
2019-05-01T10:05:06.749Z,51.33
2019-05-01T10:07:33.866Z,49.25
2019-05-01T10:10:01.310Z,49.13
2019-05-01T10:12:28.682Z,48.63
2019-05-01T10:14:56.052Z,49.08
2019-05-01T10:17:23.443Z,49.38
2019-05-01T10:19:50.830Z,50.85
2019-05-01T10:22:18.262Z,51.35
2019-05-01T10:24:45.685Z,50.65
2019-05-01T10:27:17.312Z,52.35
2019-05-01T10:30:19.044Z,48.45
2019-05-01T10:32:52.818Z,49.55
2019-05-01T10:35:42.016Z,49.05
2019-05-01T10:37:58.991Z,48.15
2019-05-01T10:40:26.927Z,48.65
2019-05-01T10:42:55.606Z,58.38
2019-05-01T10:45:23.002Z,50.67
2019-05-01T10:47:50.386Z,53.17
2019-05-01T10:50:17.779Z,56.35
2019-05-01T10:52:45.190Z,49.65
2019-05-01T10:55:12.610Z,52.65
2019-05-01T10:57:41.923Z,53.20
2019-05-01T11:00:09.994Z,51.28
2019-05-01T11:02:38.210Z,55.48
2019-05-01T11:05:06.298Z,52.23
2019-05-01T11:07:33.770Z,53.55
2019-05-01T11:10:01.138Z,57.33
2019-05-01T11:12:28.519Z,54.35
2019-05-01T11:14:55.900Z,51.77
2019-05-01T11:17:23.282Z,57.17
2019-05-01T11:19:50.682Z,54.35
2019-05-01T11:22:18.076Z,59.20
2019-05-01T11:24:45.497Z,60.70
2019-05-01T11:27:12.885Z,60.80
2019-05-01T11:29:40.285Z,56.08
2019-05-01T11:32:20.723Z,56.28
2019-05-01T11:35:10.344Z,62.27
2019-05-01T11:37:48.950Z,60.48
2019-05-01T11:40:32.765Z,58.52
2019-05-01T11:43:02.615Z,63.63
2019-05-01T11:45:29.366Z,60.92
2019-05-01T11:47:56.739Z,56.02
2019-05-01T11:50:24.139Z,59.73
2019-05-01T11:52:51.566Z,63.92
2019-05-01T11:55:18.886Z,61.33
2019-05-01T11:57:46.268Z,65.20
2019-05-01T12:00:15.649Z,64.53
2019-05-01T12:02:43.057Z,96.25
2019-05-01T12:05:10.438Z,69.05
2019-05-01T12:07:37.825Z,62.62
2019-05-01T12:10:06.131Z,60.55
2019-05-01T12:12:34.436Z,63.00
2019-05-01T12:15:02.324Z,64.60
2019-05-01T12:17:41.534Z,68.78
2019-05-01T12:20:09.302Z,64.77
2019-05-01T12:22:36.682Z,69.70
2019-05-01T12:25:04.490Z,69.95
2019-05-01T12:27:31.869Z,65.35
2019-05-01T12:29:59.272Z,66.72
2019-05-01T12:32:26.690Z,67.17
2019-05-01T12:34:54.097Z,66.12
2019-05-01T12:37:34.986Z,67.78
2019-05-01T12:40:02.395Z,66.00
2019-05-01T12:42:30.403Z,69.67
2019-05-01T12:44:57.819Z,75.08
2019-05-01T12:47:47.503Z,70.30
2019-05-01T12:50:15.325Z,63.52
2019-05-01T12:53:08.912Z,65.17
2019-05-01T12:56:01.953Z,69.35
2019-05-01T12:58:29.391Z,68.25
2019-05-01T13:00:56.747Z,68.62
2019-05-01T13:03:24.142Z,69.55
2019-05-01T13:05:51.650Z,65.78
2019-05-01T13:08:19.084Z,67.17
2019-05-01T13:10:46.997Z,65.45
2019-05-01T13:13:14.391Z,67.87
2019-05-01T13:15:41.787Z,78.07
2019-05-01T13:18:09.207Z,69.22
2019-05-01T13:20:36.591Z,65.05
2019-05-01T13:23:04.147Z,67.92
2019-05-01T13:25:31.707Z,112.42
2019-05-01T13:28:13.383Z,77.37
2019-05-01T13:30:51.508Z,65.12
2019-05-01T13:33:19.002Z,60.08
2019-05-01T13:35:46.390Z,62.17
2019-05-01T13:38:13.782Z,62.48
2019-05-01T13:40:41.178Z,62.23
2019-05-01T13:43:08.555Z,63.13
2019-05-01T13:45:35.939Z,66.50
2019-05-01T13:48:03.487Z,64.37
2019-05-01T13:50:30.975Z,63.02
2019-05-01T13:52:58.355Z,70.78
2019-05-01T13:55:25.813Z,68.22
2019-05-01T13:57:53.177Z,67.70
2019-05-01T14:00:20.954Z,69.00
2019-05-01T14:02:48.343Z,72.03
2019-05-01T14:05:15.729Z,70.37
2019-05-01T14:07:43.151Z,73.75
2019-05-01T14:10:10.631Z,68.37
2019-05-01T14:12:38.030Z,69.25
2019-05-01T14:15:06.034Z,67.17
2019-05-01T14:17:33.382Z,64.32
2019-05-01T14:20:14.397Z,74.55
2019-05-01T14:22:54.226Z,74.15
2019-05-01T14:25:21.646Z,64.65
2019-05-01T14:27:49.033Z,69.90
2019-05-01T14:30:16.906Z,70.80
2019-05-01T14:32:44.272Z,71.75
2019-05-01T14:35:12.750Z,75.78
2019-05-01T14:37:40.486Z,73.25
2019-05-01T14:40:07.932Z,76.10
2019-05-01T14:42:35.319Z,77.60
2019-05-01T14:45:04.022Z,78.70
2019-05-01T14:47:31.418Z,71.40
2019-05-01T14:49:58.814Z,85.87
2019-05-01T14:52:26.223Z,80.03
2019-05-01T14:54:53.625Z,77.47
2019-05-01T14:57:21.039Z,74.80
2019-05-01T14:59:48.460Z,77.47
2019-05-01T15:02:15.843Z,81.57
2019-05-01T15:04:43.267Z,79.10
2019-05-01T15:07:11.298Z,82.82
2019-05-01T15:09:38.642Z,81.47
2019-05-01T15:12:07.506Z,81.50
2019-05-01T15:15:00.278Z,84.20
2019-05-01T15:17:55.887Z,88.67
2019-05-01T15:20:23.267Z,92.33
2019-05-01T15:22:50.638Z,87.97
2019-05-01T15:25:18.047Z,83.92
2019-05-01T15:27:45.588Z,86.15
2019-05-01T15:30:16.940Z,78.87
2019-05-01T15:32:44.331Z,82.27
2019-05-01T15:35:11.738Z,80.92
2019-05-01T15:37:39.130Z,91.63
2019-05-01T15:40:26.088Z,80.85
2019-05-01T15:43:22.766Z,79.90
2019-05-01T15:45:50.190Z,73.02
2019-05-01T15:48:17.602Z,78.47
2019-05-01T15:50:45.000Z,84.85
2019-05-01T15:53:12.429Z,84.30
2019-05-01T15:55:39.812Z,70.90
2019-05-01T15:58:07.227Z,68.50
2019-05-01T16:00:34.701Z,63.05
2019-05-01T16:03:02.111Z,60.50
2019-05-01T16:05:29.526Z,64.62
2019-05-01T16:08:08.961Z,61.55
2019-05-01T16:10:30.950Z,62.67
2019-05-01T16:12:59.970Z,63.00
2019-05-01T16:15:29.619Z,61.70
2019-05-01T16:17:57.013Z,70.17
2019-05-01T16:20:24.519Z,60.63
2019-05-01T16:22:51.928Z,61.70
2019-05-01T16:25:19.311Z,63.45
2019-05-01T16:27:46.830Z,60.50
2019-05-01T16:30:18.246Z,61.08
2019-05-01T16:32:45.650Z,60.50
2019-05-01T16:35:13.056Z,59.03
2019-05-01T16:37:40.447Z,61.50
2019-05-01T16:40:24.282Z,56.33
2019-05-01T16:42:51.678Z,54.42
2019-05-01T16:45:19.098Z,57.23
2019-05-01T16:47:46.499Z,82.12
2019-05-01T16:50:13.981Z,54.40
2019-05-01T16:52:42.637Z,56.40
2019-05-01T16:55:10.859Z,57.58
2019-05-01T16:57:38.580Z,61.37
2019-05-01T17:00:07.707Z,55.85
2019-05-01T17:03:00.795Z,57.75
2019-05-01T17:05:48.291Z,62.38
2019-05-01T17:08:36.451Z,56.13
2019-05-01T17:11:03.530Z,57.05
2019-05-01T17:13:30.944Z,55.83
2019-05-01T17:15:58.353Z,57.40
2019-05-01T17:18:25.771Z,55.08
2019-05-01T17:20:53.153Z,57.67
2019-05-01T17:23:20.587Z,57.35
2019-05-01T17:25:47.963Z,59.18
2019-05-01T17:28:15.369Z,54.80
2019-05-01T17:30:49.201Z,56.90
2019-05-01T17:33:20.810Z,50.00
2019-05-01T17:35:45.810Z,50.58
2019-05-01T17:38:13.210Z,63.13
2019-05-01T17:40:40.587Z,59.50
2019-05-01T17:43:12.808Z,52.93
2019-05-01T17:45:37.190Z,48.33
2019-05-01T17:48:04.806Z,51.68
2019-05-01T17:50:32.207Z,48.35
2019-05-01T17:52:59.592Z,49.80
2019-05-01T17:55:26.998Z,42.08
2019-05-01T17:57:54.401Z,50.65
2019-05-01T18:00:50.627Z,46.33
2019-05-01T18:03:35.908Z,49.67
2019-05-01T18:06:11.918Z,43.83
2019-05-01T18:08:39.367Z,43.08
2019-05-01T18:11:09.370Z,43.87
2019-05-01T18:13:36.087Z,40.95
2019-05-01T18:16:03.882Z,47.15
2019-05-01T18:18:31.279Z,47.03
2019-05-01T18:20:58.671Z,45.17
2019-05-01T18:23:49.454Z,47.62
2019-05-01T18:26:38.761Z,42.00
2019-05-01T18:29:15.843Z,40.15
2019-05-01T18:31:43.259Z,47.78
2019-05-01T18:34:10.682Z,46.98
2019-05-01T18:36:43.324Z,50.05
2019-05-01T18:39:16.584Z,52.17
2019-05-01T18:41:55.800Z,48.75
2019-05-01T18:44:23.179Z,46.35
2019-05-01T18:46:50.570Z,45.25
2019-05-01T18:49:17.991Z,53.58
2019-05-01T18:51:45.347Z,48.80
2019-05-01T18:54:12.709Z,43.98
2019-05-01T18:56:40.115Z,44.45
2019-05-01T18:59:07.506Z,41.68
2019-05-01T19:01:34.934Z,44.45
2019-05-01T19:04:02.455Z,42.80
2019-05-01T19:06:40.635Z,42.70
2019-05-01T19:08:59.179Z,42.78
2019-05-01T19:11:26.670Z,48.65
2019-05-01T19:13:54.076Z,41.42
2019-05-01T19:16:21.575Z,48.75
2019-05-01T19:18:49.097Z,45.23
2019-05-01T19:21:18.239Z,48.50
2019-05-01T19:23:45.658Z,51.95
2019-05-01T19:26:13.097Z,50.40
2019-05-01T19:28:40.545Z,67.08
2019-05-01T19:31:08.251Z,57.58
2019-05-01T19:33:35.699Z,48.17
2019-05-01T19:36:08.081Z,45.43
2019-05-01T19:38:35.078Z,48.52
2019-05-01T19:41:08.345Z,45.20
2019-05-01T19:43:35.936Z,46.30
2019-05-01T19:46:02.173Z,56.23
2019-05-01T19:48:29.607Z,44.08
2019-05-01T19:50:57.126Z,48.70
2019-05-01T19:53:24.950Z,52.58
2019-05-01T19:55:52.261Z,55.65
2019-05-01T19:58:19.701Z,55.65
2019-05-01T20:00:57.112Z,61.73
2019-05-01T20:03:24.537Z,64.30
2019-05-01T20:05:51.953Z,69.45
2019-05-01T20:08:19.370Z,69.00
2019-05-01T20:10:46.798Z,80.67
2019-05-01T20:13:14.251Z,76.30
2019-05-01T20:15:41.778Z,72.70
2019-05-01T20:18:09.190Z,63.52
2019-05-01T20:20:36.698Z,57.48
2019-05-01T20:23:04.130Z,56.53
2019-05-01T20:25:31.538Z,55.00
2019-05-01T20:27:58.950Z,52.23
2019-05-01T20:30:26.364Z,49.98
2019-05-01T20:32:58.122Z,51.83
2019-05-01T20:35:23.956Z,47.15
2019-05-01T20:37:52.240Z,50.80
2019-05-01T20:40:19.654Z,47.55
2019-05-01T20:42:47.086Z,56.33
2019-05-01T20:45:18.603Z,52.03
2019-05-01T20:48:13.751Z,57.30
2019-05-01T20:50:13.951Z,56.95
2019-05-01T20:52:41.660Z,58.40
2019-05-01T20:55:09.084Z,53.75
2019-05-01T20:57:38.488Z,56.23
2019-05-01T21:00:06.623Z,57.58
2019-05-01T21:02:34.184Z,52.48
2019-05-01T21:05:38.986Z,57.75
2019-05-01T21:08:10.131Z,56.73
2019-05-01T21:10:57.069Z,56.88
2019-05-01T21:13:25.111Z,57.85
2019-05-01T21:15:56.300Z,59.20
2019-05-01T21:18:25.955Z,53.08
2019-05-01T21:20:50.984Z,55.80
2019-05-01T21:23:18.395Z,57.15
2019-05-01T21:25:45.849Z,55.17
2019-05-01T21:28:14.191Z,64.97
2019-05-01T21:30:45.841Z,56.98
2019-05-01T21:33:11.908Z,57.67
2019-05-01T21:35:41.639Z,56.48
2019-05-01T21:38:09.054Z,61.50
2019-05-01T21:40:40.357Z,60.33
2019-05-01T21:43:05.726Z,61.53
2019-05-01T21:45:33.148Z,63.13
2019-05-01T21:48:00.532Z,60.90
2019-05-01T21:50:27.925Z,63.02
2019-05-01T21:52:58.019Z,58.92
2019-05-01T21:55:25.621Z,62.10
2019-05-01T21:57:55.117Z,64.62
2019-05-01T22:00:24.849Z,62.23
2019-05-01T22:02:51.842Z,68.52
2019-05-01T22:05:19.223Z,66.35
2019-05-01T22:07:46.632Z,61.08
2019-05-01T22:10:14.326Z,73.37
2019-05-01T22:12:44.017Z,66.55
2019-05-01T22:15:19.008Z,78.40
2019-05-01T22:17:59.832Z,69.80
2019-05-01T22:20:33.783Z,74.12
2019-05-01T22:23:04.003Z,74.00
2019-05-01T22:25:35.212Z,79.05
2019-05-01T22:28:13.991Z,78.60
2019-05-01T22:30:46.185Z,70.40
2019-05-01T22:33:14.839Z,70.92
2019-05-01T22:35:47.574Z,74.10
2019-05-01T22:38:14.978Z,71.00
2019-05-01T22:40:50.128Z,73.45
2019-05-01T22:43:17.506Z,60.25
2019-05-01T22:45:45.009Z,65.42
2019-05-01T22:48:12.431Z,63.42
2019-05-01T22:50:39.835Z,71.15
2019-05-01T22:53:07.932Z,68.62
2019-05-01T22:55:36.446Z,75.97
2019-05-01T22:58:04.039Z,73.40
2019-05-01T23:00:50.972Z,68.60
2019-05-01T23:03:23.178Z,68.02
2019-05-01T23:05:50.570Z,72.32
2019-05-01T23:08:17.982Z,73.17
2019-05-01T23:10:47.038Z,65.80
2019-05-01T23:13:14.562Z,66.87
2019-05-01T23:15:41.954Z,69.50
2019-05-01T23:18:10.635Z,77.08
2019-05-01T23:20:39.098Z,72.80
2019-05-01T23:23:07.314Z,75.60
2019-05-01T23:25:36.520Z,72.87
2019-05-01T23:28:05.875Z,66.40
2019-05-01T23:30:33.330Z,70.90
2019-05-01T23:33:00.747Z,73.62
2019-05-01T23:35:28.269Z,74.58
2019-05-01T23:37:55.655Z,71.57
2019-05-01T23:40:23.058Z,69.85
2019-05-01T23:42:53.516Z,79.30
2019-05-01T23:45:19.678Z,79.30
2019-05-01T23:47:47.090Z,68.95
2019-05-01T23:50:14.597Z,64.62
2019-05-01T23:52:41.992Z,68.20
2019-05-01T23:55:09.475Z,65.90
2019-05-01T23:57:36.887Z,69.85
